Terminal Aerodrome Forecast
Issued by NWS Lake Charles, LA

Home | Current Version | Previous Version | Text Only | Print | Product List | Glossary On
Versions: 1 2 3 4 5 6 7 8 9 10 11 12 13 14 15 16
000
FTUS44 KLCH 310520
TAFAEX
TAF
KAEX 310520Z 3106/0106 VRB03KT P6SM VCSH SCT050
     FM310800 VRB03KT P6SM SKC
     FM311400 VRB04KT P6SM SCT025
     FM311800 VRB05KT P6SM VCTS SCT040CB SCT250
     FM010100 VRB03KT P6SM SCT250=

USA.gov is the U.S. government's official web portal to all federal, state and local government web resources and services.